Terminal Aerodrome Forecast
Issued by NWS

Home | Current Version | Previous Version | Text Only | Print | Product List | Glossary On
Versions: 1 2 3 4 5 6 7 8 9 10 11 12 13 14 15 16
000
FTUS45 KRIW 251900 AAB
TAFCPR
TAF AMD
KCPR 251916Z 2519/2618 VRB05KT P6SM VCSH SCT025 BKN045
     FM260100 02006KT P6SM SCT040 SCT060
     FM260600 25006KT P6SM BKN060
     FM260900 24009KT P6SM SCT060 BKN090
     FM261600 29011KT P6SM SCT100 BKN200=

USA.gov is the U.S. government's official web portal to all federal, state and local government web resources and services.